sensor_id;sensor_type;location;lat;lon;timestamp;P1;durP1;ratioP1;P2;durP2;ratioP2
23474;SDS011;11910;52.086;21.066;2022-07-17T00:00:39;7.50;;;3.90;;
23474;SDS011;11910;52.086;21.066;2022-07-17T00:03:08;4.60;;;3.38;;
23474;SDS011;11910;52.086;21.066;2022-07-17T00:05:38;7.10;;;3.65;;
23474;SDS011;11910;52.086;21.066;2022-07-17T00:08:04;9.70;;;3.90;;
23474;SDS011;11910;52.086;21.066;2022-07-17T00:10:31;5.65;;;3.88;;
23474;SDS011;11910;52.086;21.066;2022-07-17T00:12:57;6.75;;;3.58;;
23474;SDS011;11910;52.086;21.066;2022-07-17T00:15:23;7.88;;;4.25;;
23474;SDS011;11910;52.086;21.066;2022-07-17T00:17:49;6.60;;;3.30;;
23474;SDS011;11910;52.086;21.066;2022-07-17T00:20:14;7.88;;;3.42;;
23474;SDS011;11910;52.086;21.066;2022-07-17T00:22:40;6.18;;;3.70;;
23474;SDS011;11910;52.086;21.066;2022-07-17T00:25:08;7.57;;;3.72;;
23474;SDS011;11910;52.086;21.066;2022-07-17T00:27:35;6.72;;;3.67;;
23474;SDS011;11910;52.086;21.066;2022-07-17T00:30:02;6.07;;;4.30;;
23474;SDS011;11910;52.086;21.066;2022-07-17T00:32:28;6.05;;;4.10;;
23474;SDS011;11910;52.086;21.066;2022-07-17T00:34:54;7.47;;;4.10;;
23474;SDS011;11910;52.086;21.066;2022-07-17T00:37:20;12.50;;;4.82;;
23474;SDS011;11910;52.086;21.066;2022-07-17T00:39:45;8.00;;;4.95;;
23474;SDS011;11910;52.086;21.066;2022-07-17T00:42:15;9.07;;;4.70;;
23474;SDS011;11910;52.086;21.066;2022-07-17T00:44:41;6.47;;;4.68;;
23474;SDS011;11910;52.086;21.066;2022-07-17T00:47:16;6.78;;;4.53;;
23474;SDS011;11910;52.086;21.066;2022-07-17T00:49:43;7.30;;;4.47;;
23474;SDS011;11910;52.086;21.066;2022-07-17T00:52:10;10.32;;;5.20;;
23474;SDS011;11910;52.086;21.066;2022-07-17T00:54:37;7.38;;;4.85;;
23474;SDS011;11910;52.086;21.066;2022-07-17T00:57:07;9.35;;;4.90;;
23474;SDS011;11910;52.086;21.066;2022-07-17T00:59:37;7.72;;;4.30;;
23474;SDS011;11910;52.086;21.066;2022-07-17T01:02:07;8.07;;;4.80;;
23474;SDS011;11910;52.086;21.066;2022-07-17T01:04:34;8.82;;;5.15;;
23474;SDS011;11910;52.086;21.066;2022-07-17T01:07:00;10.23;;;4.70;;
23474;SDS011;11910;52.086;21.066;2022-07-17T01:09:28;9.52;;;4.90;;
23474;SDS011;11910;52.086;21.066;2022-07-17T01:11:54;7.72;;;4.70;;
23474;SDS011;11910;52.086;21.066;2022-07-17T01:14:21;9.45;;;4.38;;
23474;SDS011;11910;52.086;21.066;2022-07-17T01:16:48;7.38;;;4.50;;
23474;SDS011;11910;52.086;21.066;2022-07-17T01:19:15;6.72;;;4.22;;
23474;SDS011;11910;52.086;21.066;2022-07-17T01:21:42;12.23;;;5.22;;
23474;SDS011;11910;52.086;21.066;2022-07-17T01:24:09;8.95;;;5.78;;
23474;SDS011;11910;52.086;21.066;2022-07-17T01:26:35;11.52;;;5.43;;
23474;SDS011;11910;52.086;21.066;2022-07-17T01:29:02;9.00;;;5.47;;
23474;SDS011;11910;52.086;21.066;2022-07-17T01:31:28;10.52;;;6.10;;
23474;SDS011;11910;52.086;21.066;2022-07-17T01:33:54;9.63;;;5.60;;
23474;SDS011;11910;52.086;21.066;2022-07-17T01:36:21;7.93;;;5.55;;
23474;SDS011;11910;52.086;21.066;2022-07-17T01:38:48;8.57;;;5.70;;
23474;SDS011;11910;52.086;21.066;2022-07-17T01:41:14;9.43;;;5.72;;
23474;SDS011;11910;52.086;21.066;2022-07-17T01:43:40;11.70;;;5.90;;
23474;SDS011;11910;52.086;21.066;2022-07-17T01:46:06;11.50;;;6.53;;
23474;SDS011;11910;52.086;21.066;2022-07-17T01:48:32;11.48;;;6.78;;
23474;SDS011;11910;52.086;21.066;2022-07-17T01:50:57;13.68;;;6.82;;
23474;SDS011;11910;52.086;21.066;2022-07-17T01:53:23;12.43;;;7.35;;
23474;SDS011;11910;52.086;21.066;2022-07-17T01:55:49;12.27;;;8.15;;
23474;SDS011;11910;52.086;21.066;2022-07-17T01:58:15;11.73;;;8.60;;
23474;SDS011;11910;52.086;21.066;2022-07-17T02:00:41;13.65;;;9.10;;
23474;SDS011;11910;52.086;21.066;2022-07-17T02:03:07;14.70;;;9.32;;
23474;SDS011;11910;52.086;21.066;2022-07-17T02:05:33;13.68;;;8.80;;
23474;SDS011;11910;52.086;21.066;2022-07-17T02:07:58;14.80;;;9.30;;
23474;SDS011;11910;52.086;21.066;2022-07-17T02:10:25;11.80;;;9.30;;
23474;SDS011;11910;52.086;21.066;2022-07-17T02:12:51;12.60;;;9.70;;
23474;SDS011;11910;52.086;21.066;2022-07-17T02:15:17;17.98;;;9.65;;
23474;SDS011;11910;52.086;21.066;2022-07-17T02:17:43;16.98;;;10.25;;
23474;SDS011;11910;52.086;21.066;2022-07-17T02:20:09;15.15;;;9.93;;
23474;SDS011;11910;52.086;21.066;2022-07-17T02:22:36;15.63;;;10.35;;
23474;SDS011;11910;52.086;21.066;2022-07-17T02:25:02;14.88;;;10.50;;
23474;SDS011;11910;52.086;21.066;2022-07-17T02:27:30;16.10;;;10.98;;
23474;SDS011;11910;52.086;21.066;2022-07-17T02:29:56;16.77;;;11.40;;
23474;SDS011;11910;52.086;21.066;2022-07-17T02:32:22;15.48;;;11.63;;
23474;SDS011;11910;52.086;21.066;2022-07-17T02:34:48;18.92;;;12.40;;
23474;SDS011;11910;52.086;21.066;2022-07-17T02:37:14;16.60;;;12.38;;
23474;SDS011;11910;52.086;21.066;2022-07-17T02:39:40;17.98;;;11.52;;
23474;SDS011;11910;52.086;21.066;2022-07-17T02:42:17;16.30;;;12.23;;
23474;SDS011;11910;52.086;21.066;2022-07-17T02:44:44;20.00;;;13.27;;
23474;SDS011;11910;52.086;21.066;2022-07-17T02:47:10;17.35;;;12.35;;
23474;SDS011;11910;52.086;21.066;2022-07-17T02:49:36;18.08;;;13.02;;
23474;SDS011;11910;52.086;21.066;2022-07-17T02:52:02;19.25;;;14.05;;
23474;SDS011;11910;52.086;21.066;2022-07-17T02:54:27;17.60;;;13.70;;
23474;SDS011;11910;52.086;21.066;2022-07-17T02:56:53;21.73;;;14.25;;
23474;SDS011;11910;52.086;21.066;2022-07-17T02:59:19;19.63;;;14.10;;
23474;SDS011;11910;52.086;21.066;2022-07-17T03:01:44;21.98;;;14.20;;
23474;SDS011;11910;52.086;21.066;2022-07-17T03:04:10;18.65;;;13.60;;
23474;SDS011;11910;52.086;21.066;2022-07-17T03:06:35;24.17;;;13.70;;
23474;SDS011;11910;52.086;21.066;2022-07-17T03:09:01;17.20;;;13.48;;
23474;SDS011;11910;52.086;21.066;2022-07-17T03:11:27;18.15;;;13.27;;
23474;SDS011;11910;52.086;21.066;2022-07-17T03:13:52;18.67;;;12.82;;
23474;SDS011;11910;52.086;21.066;2022-07-17T03:16:18;19.77;;;13.35;;
23474;SDS011;11910;52.086;21.066;2022-07-17T03:18:43;18.98;;;12.20;;
23474;SDS011;11910;52.086;21.066;2022-07-17T03:21:09;18.80;;;11.13;;
23474;SDS011;11910;52.086;21.066;2022-07-17T03:23:35;16.70;;;12.45;;
23474;SDS011;11910;52.086;21.066;2022-07-17T03:26:00;15.23;;;11.85;;
23474;SDS011;11910;52.086;21.066;2022-07-17T03:28:26;14.55;;;11.00;;
23474;SDS011;11910;52.086;21.066;2022-07-17T03:30:52;19.77;;;11.50;;
23474;SDS011;11910;52.086;21.066;2022-07-17T03:33:18;18.45;;;12.07;;
23474;SDS011;11910;52.086;21.066;2022-07-17T03:35:43;14.10;;;10.80;;
23474;SDS011;11910;52.086;21.066;2022-07-17T03:38:09;16.73;;;12.02;;
23474;SDS011;11910;52.086;21.066;2022-07-17T03:40:35;17.35;;;11.02;;
23474;SDS011;11910;52.086;21.066;2022-07-17T03:43:00;16.60;;;11.48;;
23474;SDS011;11910;52.086;21.066;2022-07-17T03:45:26;17.17;;;11.35;;
23474;SDS011;11910;52.086;21.066;2022-07-17T03:47:51;15.68;;;12.02;;
23474;SDS011;11910;52.086;21.066;2022-07-17T03:50:17;15.90;;;10.27;;
23474;SDS011;11910;52.086;21.066;2022-07-17T03:52:43;15.02;;;9.48;;
23474;SDS011;11910;52.086;21.066;2022-07-17T03:55:09;12.95;;;9.88;;
23474;SDS011;11910;52.086;21.066;2022-07-17T03:57:35;12.55;;;9.57;;
23474;SDS011;11910;52.086;21.066;2022-07-17T04:00:01;12.73;;;9.73;;
23474;SDS011;11910;52.086;21.066;2022-07-17T04:02:27;15.52;;;9.35;;
23474;SDS011;11910;52.086;21.066;2022-07-17T04:04:53;14.95;;;8.73;;
23474;SDS011;11910;52.086;21.066;2022-07-17T04:07:18;13.75;;;8.48;;
23474;SDS011;11910;52.086;21.066;2022-07-17T04:09:54;11.77;;;7.40;;
23474;SDS011;11910;52.086;21.066;2022-07-17T04:12:20;12.85;;;7.20;;
23474;SDS011;11910;52.086;21.066;2022-07-17T04:14:46;9.98;;;6.78;;
23474;SDS011;11910;52.086;21.066;2022-07-17T04:17:12;10.88;;;6.93;;
23474;SDS011;11910;52.086;21.066;2022-07-17T04:19:38;8.00;;;6.22;;
23474;SDS011;11910;52.086;21.066;2022-07-17T04:22:03;9.65;;;6.47;;
23474;SDS011;11910;52.086;21.066;2022-07-17T04:24:29;10.25;;;6.15;;
23474;SDS011;11910;52.086;21.066;2022-07-17T04:26:54;12.40;;;5.70;;
23474;SDS011;11910;52.086;21.066;2022-07-17T04:29:20;8.50;;;5.80;;
23474;SDS011;11910;52.086;21.066;2022-07-17T04:31:45;13.60;;;6.50;;
23474;SDS011;11910;52.086;21.066;2022-07-17T04:34:11;10.93;;;6.63;;
23474;SDS011;11910;52.086;21.066;2022-07-17T04:36:37;10.23;;;6.00;;
23474;SDS011;11910;52.086;21.066;2022-07-17T04:39:02;7.53;;;4.78;;
23474;SDS011;11910;52.086;21.066;2022-07-17T04:41:28;9.68;;;5.20;;
23474;SDS011;11910;52.086;21.066;2022-07-17T04:43:54;11.50;;;5.80;;
23474;SDS011;11910;52.086;21.066;2022-07-17T04:46:19;8.00;;;4.80;;
23474;SDS011;11910;52.086;21.066;2022-07-17T04:48:45;8.43;;;4.82;;
23474;SDS011;11910;52.086;21.066;2022-07-17T04:51:11;7.78;;;4.65;;
23474;SDS011;11910;52.086;21.066;2022-07-17T04:53:36;11.63;;;4.72;;
23474;SDS011;11910;52.086;21.066;2022-07-17T04:56:02;8.32;;;4.70;;
23474;SDS011;11910;52.086;21.066;2022-07-17T04:58:28;10.77;;;4.35;;
23474;SDS011;11910;52.086;21.066;2022-07-17T05:00:54;8.00;;;4.40;;
23474;SDS011;11910;52.086;21.066;2022-07-17T05:03:20;8.00;;;3.85;;
23474;SDS011;11910;52.086;21.066;2022-07-17T05:05:45;8.35;;;3.70;;
23474;SDS011;11910;52.086;21.066;2022-07-17T05:08:11;9.02;;;3.63;;
23474;SDS011;11910;52.086;21.066;2022-07-17T05:10:37;9.38;;;3.97;;
23474;SDS011;11910;52.086;21.066;2022-07-17T05:13:03;10.20;;;5.13;;
23474;SDS011;11910;52.086;21.066;2022-07-17T05:15:28;8.45;;;5.28;;
23474;SDS011;11910;52.086;21.066;2022-07-17T05:17:54;9.18;;;5.90;;
23474;SDS011;11910;52.086;21.066;2022-07-17T05:20:20;13.57;;;6.45;;
23474;SDS011;11910;52.086;21.066;2022-07-17T05:22:45;11.07;;;6.47;;
23474;SDS011;11910;52.086;21.066;2022-07-17T05:25:11;13.15;;;6.65;;
23474;SDS011;11910;52.086;21.066;2022-07-17T05:27:37;12.90;;;6.53;;
23474;SDS011;11910;52.086;21.066;2022-07-17T05:30:02;7.05;;;4.90;;
23474;SDS011;11910;52.086;21.066;2022-07-17T05:32:28;8.18;;;4.82;;
23474;SDS011;11910;52.086;21.066;2022-07-17T05:34:54;10.32;;;4.82;;
23474;SDS011;11910;52.086;21.066;2022-07-17T05:37:19;7.85;;;4.93;;
23474;SDS011;11910;52.086;21.066;2022-07-17T05:39:45;8.73;;;4.25;;
23474;SDS011;11910;52.086;21.066;2022-07-17T05:42:11;9.65;;;3.50;;
23474;SDS011;11910;52.086;21.066;2022-07-17T05:44:36;6.25;;;3.25;;
23474;SDS011;11910;52.086;21.066;2022-07-17T05:47:02;8.40;;;3.90;;
23474;SDS011;11910;52.086;21.066;2022-07-17T05:49:27;6.50;;;3.67;;
23474;SDS011;11910;52.086;21.066;2022-07-17T05:51:53;9.43;;;5.18;;
23474;SDS011;11910;52.086;21.066;2022-07-17T05:54:19;10.77;;;5.55;;
23474;SDS011;11910;52.086;21.066;2022-07-17T05:56:44;10.82;;;5.65;;
23474;SDS011;11910;52.086;21.066;2022-07-17T05:59:10;10.95;;;5.97;;
23474;SDS011;11910;52.086;21.066;2022-07-17T06:01:36;11.43;;;5.82;;
23474;SDS011;11910;52.086;21.066;2022-07-17T06:04:01;10.73;;;5.72;;
23474;SDS011;11910;52.086;21.066;2022-07-17T06:06:27;9.15;;;5.18;;
23474;SDS011;11910;52.086;21.066;2022-07-17T06:08:53;7.63;;;5.13;;
23474;SDS011;11910;52.086;21.066;2022-07-17T06:11:18;7.35;;;4.85;;
23474;SDS011;11910;52.086;21.066;2022-07-17T06:13:44;9.15;;;5.53;;
23474;SDS011;11910;52.086;21.066;2022-07-17T06:16:09;7.82;;;5.80;;
23474;SDS011;11910;52.086;21.066;2022-07-17T06:18:35;9.85;;;6.30;;
23474;SDS011;11910;52.086;21.066;2022-07-17T06:21:01;13.35;;;6.15;;
23474;SDS011;11910;52.086;21.066;2022-07-17T06:23:26;12.70;;;6.55;;
23474;SDS011;11910;52.086;21.066;2022-07-17T06:25:52;12.70;;;7.40;;
23474;SDS011;11910;52.086;21.066;2022-07-17T06:28:18;10.15;;;7.38;;
23474;SDS011;11910;52.086;21.066;2022-07-17T06:30:43;10.18;;;7.10;;
23474;SDS011;11910;52.086;21.066;2022-07-17T06:33:09;10.15;;;6.57;;
23474;SDS011;11910;52.086;21.066;2022-07-17T06:35:34;12.90;;;7.85;;
23474;SDS011;11910;52.086;21.066;2022-07-17T06:38:02;9.27;;;7.80;;
23474;SDS011;11910;52.086;21.066;2022-07-17T06:40:28;9.23;;;7.80;;
23474;SDS011;11910;52.086;21.066;2022-07-17T06:42:54;9.32;;;7.30;;
23474;SDS011;11910;52.086;21.066;2022-07-17T06:45:19;12.25;;;8.05;;
23474;SDS011;11910;52.086;21.066;2022-07-17T06:47:45;8.98;;;6.55;;
23474;SDS011;11910;52.086;21.066;2022-07-17T06:50:10;10.07;;;7.20;;
23474;SDS011;11910;52.086;21.066;2022-07-17T06:52:36;8.18;;;7.38;;
23474;SDS011;11910;52.086;21.066;2022-07-17T06:55:02;12.23;;;6.38;;
23474;SDS011;11910;52.086;21.066;2022-07-17T06:57:28;10.52;;;6.28;;
23474;SDS011;11910;52.086;21.066;2022-07-17T06:59:54;9.10;;;6.05;;
23474;SDS011;11910;52.086;21.066;2022-07-17T07:02:19;9.63;;;6.00;;
23474;SDS011;11910;52.086;21.066;2022-07-17T07:04:45;7.88;;;6.05;;
23474;SDS011;11910;52.086;21.066;2022-07-17T07:07:11;11.40;;;6.47;;
23474;SDS011;11910;52.086;21.066;2022-07-17T07:09:36;8.02;;;5.20;;
23474;SDS011;11910;52.086;21.066;2022-07-17T07:12:02;8.05;;;5.32;;
23474;SDS011;11910;52.086;21.066;2022-07-17T07:14:28;7.47;;;4.75;;
23474;SDS011;11910;52.086;21.066;2022-07-17T07:16:54;10.20;;;6.10;;
23474;SDS011;11910;52.086;21.066;2022-07-17T07:19:20;8.05;;;5.43;;
23474;SDS011;11910;52.086;21.066;2022-07-17T07:21:45;8.15;;;5.63;;
23474;SDS011;11910;52.086;21.066;2022-07-17T07:24:11;10.52;;;6.20;;
23474;SDS011;11910;52.086;21.066;2022-07-17T07:26:36;8.93;;;6.20;;
23474;SDS011;11910;52.086;21.066;2022-07-17T07:29:02;7.93;;;5.25;;
23474;SDS011;11910;52.086;21.066;2022-07-17T07:31:28;11.95;;;7.00;;
23474;SDS011;11910;52.086;21.066;2022-07-17T07:33:54;7.03;;;6.32;;
23474;SDS011;11910;52.086;21.066;2022-07-17T07:36:19;11.40;;;5.90;;
23474;SDS011;11910;52.086;21.066;2022-07-17T07:38:45;8.77;;;6.05;;
23474;SDS011;11910;52.086;21.066;2022-07-17T07:41:11;7.88;;;5.95;;
23474;SDS011;11910;52.086;21.066;2022-07-17T07:43:37;10.45;;;6.72;;
23474;SDS011;11910;52.086;21.066;2022-07-17T07:46:03;8.63;;;6.25;;
23474;SDS011;11910;52.086;21.066;2022-07-17T07:48:29;10.63;;;5.80;;
23474;SDS011;11910;52.086;21.066;2022-07-17T07:50:54;10.90;;;5.00;;
23474;SDS011;11910;52.086;21.066;2022-07-17T07:53:20;7.22;;;5.13;;
23474;SDS011;11910;52.086;21.066;2022-07-17T07:55:46;9.80;;;6.22;;
23474;SDS011;11910;52.086;21.066;2022-07-17T07:58:15;7.68;;;4.88;;
23474;SDS011;11910;52.086;21.066;2022-07-17T08:00:42;9.23;;;6.07;;
23474;SDS011;11910;52.086;21.066;2022-07-17T08:03:09;10.52;;;6.25;;
23474;SDS011;11910;52.086;21.066;2022-07-17T08:05:35;8.80;;;6.07;;
23474;SDS011;11910;52.086;21.066;2022-07-17T08:08:01;9.07;;;5.68;;
23474;SDS011;11910;52.086;21.066;2022-07-17T08:10:27;7.30;;;4.80;;
23474;SDS011;11910;52.086;21.066;2022-07-17T08:12:53;7.03;;;4.55;;
23474;SDS011;11910;52.086;21.066;2022-07-17T08:15:20;6.78;;;4.70;;
23474;SDS011;11910;52.086;21.066;2022-07-17T08:17:47;8.02;;;4.35;;
23474;SDS011;11910;52.086;21.066;2022-07-17T08:20:17;6.07;;;5.20;;
23474;SDS011;11910;52.086;21.066;2022-07-17T08:22:43;8.02;;;5.10;;
23474;SDS011;11910;52.086;21.066;2022-07-17T08:25:10;8.30;;;4.35;;
23474;SDS011;11910;52.086;21.066;2022-07-17T08:27:36;8.77;;;4.50;;
23474;SDS011;11910;52.086;21.066;2022-07-17T08:30:06;7.78;;;4.20;;
23474;SDS011;11910;52.086;21.066;2022-07-17T08:32:34;6.68;;;3.78;;
23474;SDS011;11910;52.086;21.066;2022-07-17T08:35:00;6.50;;;4.00;;
23474;SDS011;11910;52.086;21.066;2022-07-17T08:37:26;3.88;;;3.10;;
23474;SDS011;11910;52.086;21.066;2022-07-17T08:39:52;7.68;;;3.20;;
23474;SDS011;11910;52.086;21.066;2022-07-17T08:42:18;5.35;;;3.15;;
23474;SDS011;11910;52.086;21.066;2022-07-17T08:44:44;7.47;;;3.10;;
23474;SDS011;11910;52.086;21.066;2022-07-17T08:47:14;7.75;;;2.83;;
23474;SDS011;11910;52.086;21.066;2022-07-17T08:49:43;5.22;;;2.60;;
23474;SDS011;11910;52.086;21.066;2022-07-17T08:52:11;6.15;;;2.60;;
23474;SDS011;11910;52.086;21.066;2022-07-17T08:54:38;9.07;;;2.35;;
23474;SDS011;11910;52.086;21.066;2022-07-17T08:57:04;5.85;;;2.35;;
23474;SDS011;11910;52.086;21.066;2022-07-17T08:59:30;3.70;;;2.00;;
23474;SDS011;11910;52.086;21.066;2022-07-17T09:01:58;6.80;;;1.90;;
23474;SDS011;11910;52.086;21.066;2022-07-17T09:04:24;4.85;;;1.88;;
23474;SDS011;11910;52.086;21.066;2022-07-17T09:07:03;7.82;;;2.08;;
23474;SDS011;11910;52.086;21.066;2022-07-17T09:09:30;4.78;;;1.67;;
23474;SDS011;11910;52.086;21.066;2022-07-17T09:11:58;4.72;;;1.60;;
23474;SDS011;11910;52.086;21.066;2022-07-17T09:14:35;8.68;;;1.80;;
23474;SDS011;11910;52.086;21.066;2022-07-17T09:17:04;2.70;;;1.42;;
23474;SDS011;11910;52.086;21.066;2022-07-17T09:19:32;3.25;;;1.88;;
23474;SDS011;11910;52.086;21.066;2022-07-17T09:22:09;4.95;;;1.63;;
23474;SDS011;11910;52.086;21.066;2022-07-17T09:24:53;4.03;;;1.50;;
23474;SDS011;11910;52.086;21.066;2022-07-17T09:32:40;6.35;;;1.75;;
23474;SDS011;11910;52.086;21.066;2022-07-17T09:35:08;5.05;;;1.70;;
23474;SDS011;11910;52.086;21.066;2022-07-17T09:37:35;3.33;;;1.75;;
23474;SDS011;11910;52.086;21.066;2022-07-17T09:40:03;3.38;;;1.65;;
23474;SDS011;11910;52.086;21.066;2022-07-17T09:42:35;5.40;;;1.70;;
23474;SDS011;11910;52.086;21.066;2022-07-17T09:45:01;3.58;;;1.30;;
23474;SDS011;11910;52.086;21.066;2022-07-17T09:49:59;4.43;;;1.85;;
23474;SDS011;11910;52.086;21.066;2022-07-17T09:52:28;3.15;;;1.60;;
23474;SDS011;11910;52.086;21.066;2022-07-17T09:54:56;4.97;;;1.60;;
23474;SDS011;11910;52.086;21.066;2022-07-17T09:57:26;3.70;;;1.55;;
23474;SDS011;11910;52.086;21.066;2022-07-17T09:59:55;3.00;;;1.60;;
23474;SDS011;11910;52.086;21.066;2022-07-17T10:02:23;2.30;;;1.40;;
23474;SDS011;11910;52.086;21.066;2022-07-17T10:04:50;3.42;;;1.80;;
23474;SDS011;11910;52.086;21.066;2022-07-17T10:07:17;5.25;;;1.83;;
23474;SDS011;11910;52.086;21.066;2022-07-17T10:09:44;2.78;;;1.65;;
23474;SDS011;11910;52.086;21.066;2022-07-17T10:12:11;2.28;;;1.50;;
23474;SDS011;11910;52.086;21.066;2022-07-17T10:14:38;3.60;;;1.45;;
23474;SDS011;11910;52.086;21.066;2022-07-17T10:17:07;3.75;;;1.42;;
23474;SDS011;11910;52.086;21.066;2022-07-17T10:19:34;1.75;;;1.50;;
23474;SDS011;11910;52.086;21.066;2022-07-17T10:22:11;5.47;;;1.90;;
23474;SDS011;11910;52.086;21.066;2022-07-17T10:24:44;4.20;;;2.28;;
23474;SDS011;11910;52.086;21.066;2022-07-17T10:27:18;4.90;;;1.60;;
23474;SDS011;11910;52.086;21.066;2022-07-17T10:30:04;4.28;;;1.92;;
23474;SDS011;11910;52.086;21.066;2022-07-17T10:32:33;3.45;;;1.75;;
23474;SDS011;11910;52.086;21.066;2022-07-17T10:35:06;3.80;;;1.83;;
23474;SDS011;11910;52.086;21.066;2022-07-17T10:40:14;3.28;;;1.60;;
23474;SDS011;11910;52.086;21.066;2022-07-17T10:45:17;2.08;;;1.55;;
23474;SDS011;11910;52.086;21.066;2022-07-17T10:47:51;4.95;;;2.10;;
23474;SDS011;11910;52.086;21.066;2022-07-17T10:50:18;6.30;;;2.20;;
23474;SDS011;11910;52.086;21.066;2022-07-17T10:52:56;4.40;;;1.90;;
23474;SDS011;11910;52.086;21.066;2022-07-17T10:55:45;4.88;;;1.70;;
23474;SDS011;11910;52.086;21.066;2022-07-17T11:00:42;4.90;;;2.03;;
23474;SDS011;11910;52.086;21.066;2022-07-17T11:03:09;4.85;;;1.88;;
23474;SDS011;11910;52.086;21.066;2022-07-17T11:05:35;1.90;;;1.73;;
23474;SDS011;11910;52.086;21.066;2022-07-17T11:08:01;3.53;;;1.70;;
23474;SDS011;11910;52.086;21.066;2022-07-17T11:10:34;4.18;;;1.67;;
23474;SDS011;11910;52.086;21.066;2022-07-17T11:13:08;3.25;;;1.83;;
23474;SDS011;11910;52.086;21.066;2022-07-17T11:15:43;2.50;;;1.45;;
23474;SDS011;11910;52.086;21.066;2022-07-17T11:18:20;2.95;;;1.70;;
23474;SDS011;11910;52.086;21.066;2022-07-17T11:20:47;2.83;;;1.65;;
23474;SDS011;11910;52.086;21.066;2022-07-17T11:23:17;2.77;;;1.67;;
23474;SDS011;11910;52.086;21.066;2022-07-17T11:30:59;3.25;;;1.40;;
23474;SDS011;11910;52.086;21.066;2022-07-17T11:33:26;1.42;;;1.30;;
23474;SDS011;11910;52.086;21.066;2022-07-17T11:35:52;1.73;;;1.42;;
23474;SDS011;11910;52.086;21.066;2022-07-17T11:38:26;2.67;;;1.40;;
23474;SDS011;11910;52.086;21.066;2022-07-17T11:40:56;3.72;;;1.67;;
23474;SDS011;11910;52.086;21.066;2022-07-17T11:43:22;5.07;;;1.88;;
23474;SDS011;11910;52.086;21.066;2022-07-17T11:45:48;2.30;;;1.55;;
23474;SDS011;11910;52.086;21.066;2022-07-17T11:48:14;2.35;;;1.80;;
23474;SDS011;11910;52.086;21.066;2022-07-17T11:50:40;2.00;;;1.50;;
23474;SDS011;11910;52.086;21.066;2022-07-17T11:53:16;2.35;;;1.45;;
23474;SDS011;11910;52.086;21.066;2022-07-17T11:55:42;3.13;;;1.60;;
23474;SDS011;11910;52.086;21.066;2022-07-17T11:58:08;2.05;;;1.42;;
23474;SDS011;11910;52.086;21.066;2022-07-17T12:00:34;3.17;;;1.60;;
23474;SDS011;11910;52.086;21.066;2022-07-17T12:03:01;4.05;;;1.50;;
23474;SDS011;11910;52.086;21.066;2022-07-17T12:05:28;2.97;;;1.55;;
23474;SDS011;11910;52.086;21.066;2022-07-17T12:07:55;3.00;;;1.52;;
23474;SDS011;11910;52.086;21.066;2022-07-17T12:10:22;6.28;;;1.50;;
23474;SDS011;11910;52.086;21.066;2022-07-17T12:12:54;2.60;;;1.55;;
23474;SDS011;11910;52.086;21.066;2022-07-17T12:15:40;4.10;;;1.50;;
23474;SDS011;11910;52.086;21.066;2022-07-17T12:18:19;2.35;;;1.30;;
23474;SDS011;11910;52.086;21.066;2022-07-17T12:20:56;2.08;;;1.42;;
23474;SDS011;11910;52.086;21.066;2022-07-17T12:28:36;2.03;;;1.50;;
23474;SDS011;11910;52.086;21.066;2022-07-17T12:31:02;3.47;;;1.55;;
23474;SDS011;11910;52.086;21.066;2022-07-17T12:33:28;3.80;;;1.38;;
23474;SDS011;11910;52.086;21.066;2022-07-17T12:35:54;2.30;;;1.30;;
23474;SDS011;11910;52.086;21.066;2022-07-17T12:38:20;2.88;;;1.40;;
23474;SDS011;11910;52.086;21.066;2022-07-17T12:40:46;2.33;;;1.55;;
23474;SDS011;11910;52.086;21.066;2022-07-17T12:43:11;2.25;;;1.50;;
23474;SDS011;11910;52.086;21.066;2022-07-17T12:45:38;3.08;;;2.00;;
23474;SDS011;11910;52.086;21.066;2022-07-17T12:48:05;2.33;;;1.65;;
23474;SDS011;11910;52.086;21.066;2022-07-17T12:50:30;2.35;;;1.65;;
23474;SDS011;11910;52.086;21.066;2022-07-17T12:52:56;1.67;;;1.40;;
23474;SDS011;11910;52.086;21.066;2022-07-17T12:55:22;1.88;;;1.40;;
23474;SDS011;11910;52.086;21.066;2022-07-17T12:57:48;17.38;;;2.08;;
23474;SDS011;11910;52.086;21.066;2022-07-17T13:00:13;2.97;;;1.50;;
23474;SDS011;11910;52.086;21.066;2022-07-17T13:02:39;2.25;;;1.50;;
23474;SDS011;11910;52.086;21.066;2022-07-17T13:05:06;12.02;;;1.75;;
23474;SDS011;11910;52.086;21.066;2022-07-17T13:07:32;2.67;;;1.52;;
23474;SDS011;11910;52.086;21.066;2022-07-17T13:09:58;2.05;;;1.60;;
23474;SDS011;11910;52.086;21.066;2022-07-17T13:12:24;2.28;;;1.58;;
23474;SDS011;11910;52.086;21.066;2022-07-17T13:14:50;2.45;;;1.35;;
23474;SDS011;11910;52.086;21.066;2022-07-17T13:17:15;2.70;;;1.40;;
23474;SDS011;11910;52.086;21.066;2022-07-17T13:19:41;1.95;;;1.27;;
23474;SDS011;11910;52.086;21.066;2022-07-17T13:22:07;1.73;;;1.40;;
23474;SDS011;11910;52.086;21.066;2022-07-17T13:24:33;1.77;;;1.15;;
23474;SDS011;11910;52.086;21.066;2022-07-17T13:26:59;2.47;;;1.35;;
23474;SDS011;11910;52.086;21.066;2022-07-17T13:29:25;1.67;;;1.20;;
23474;SDS011;11910;52.086;21.066;2022-07-17T13:31:54;2.53;;;1.25;;
23474;SDS011;11910;52.086;21.066;2022-07-17T13:34:21;2.72;;;1.33;;
23474;SDS011;11910;52.086;21.066;2022-07-17T13:36:47;2.42;;;1.25;;
23474;SDS011;11910;52.086;21.066;2022-07-17T13:39:13;2.67;;;1.30;;
23474;SDS011;11910;52.086;21.066;2022-07-17T13:41:40;2.55;;;1.40;;
23474;SDS011;11910;52.086;21.066;2022-07-17T13:44:06;2.10;;;1.27;;
23474;SDS011;11910;52.086;21.066;2022-07-17T13:46:32;2.30;;;1.20;;
23474;SDS011;11910;52.086;21.066;2022-07-17T13:48:58;3.63;;;1.30;;
23474;SDS011;11910;52.086;21.066;2022-07-17T13:51:23;4.70;;;1.90;;
23474;SDS011;11910;52.086;21.066;2022-07-17T13:53:51;2.50;;;1.33;;
23474;SDS011;11910;52.086;21.066;2022-07-17T13:56:17;3.25;;;1.40;;
23474;SDS011;11910;52.086;21.066;2022-07-17T13:58:43;1.85;;;1.35;;
23474;SDS011;11910;52.086;21.066;2022-07-17T14:01:10;2.38;;;1.10;;
23474;SDS011;11910;52.086;21.066;2022-07-17T14:03:37;2.78;;;1.40;;
23474;SDS011;11910;52.086;21.066;2022-07-17T14:06:02;2.22;;;1.10;;
23474;SDS011;11910;52.086;21.066;2022-07-17T14:08:28;1.75;;;1.23;;
23474;SDS011;11910;52.086;21.066;2022-07-17T14:10:54;3.17;;;1.00;;
23474;SDS011;11910;52.086;21.066;2022-07-17T14:13:19;3.60;;;1.27;;
23474;SDS011;11910;52.086;21.066;2022-07-17T14:15:45;1.63;;;1.10;;
23474;SDS011;11910;52.086;21.066;2022-07-17T14:18:11;3.13;;;1.30;;
23474;SDS011;11910;52.086;21.066;2022-07-17T14:20:37;2.08;;;1.27;;
23474;SDS011;11910;52.086;21.066;2022-07-17T14:23:02;3.33;;;1.40;;
23474;SDS011;11910;52.086;21.066;2022-07-17T14:25:28;2.10;;;1.00;;
23474;SDS011;11910;52.086;21.066;2022-07-17T14:27:54;3.97;;;1.20;;
23474;SDS011;11910;52.086;21.066;2022-07-17T14:30:20;4.03;;;1.27;;
23474;SDS011;11910;52.086;21.066;2022-07-17T14:32:45;1.33;;;1.10;;
23474;SDS011;11910;52.086;21.066;2022-07-17T14:35:12;2.80;;;1.85;;
23474;SDS011;11910;52.086;21.066;2022-07-17T14:37:38;4.20;;;2.03;;
23474;SDS011;11910;52.086;21.066;2022-07-17T14:40:03;1.80;;;1.40;;
23474;SDS011;11910;52.086;21.066;2022-07-17T14:42:30;1.55;;;1.30;;
23474;SDS011;11910;52.086;21.066;2022-07-17T14:44:58;2.13;;;1.58;;
23474;SDS011;11910;52.086;21.066;2022-07-17T14:47:25;4.95;;;3.30;;
23474;SDS011;11910;52.086;21.066;2022-07-17T14:49:51;3.10;;;1.85;;
23474;SDS011;11910;52.086;21.066;2022-07-17T14:52:16;3.08;;;1.90;;